Friday, August 26, 2016, 6:06 AM EDT

KRDG, Reading Regional Airport

Location: Reading, PA, United States Lat: 40.367
Local Time: 6:06 AM EDT (10:06 GMT) Lon: -75.967
Time Zone: US/Eastern Elev: 344 ft

Show me the last for .
Show Decoded

2016-08-26 05:54 METAR KRDG 260954Z 32003KT 6SM BR SCT095 24/22 A3000 RMK AO2 RAB06E27 SLP159
                 P0000 T02390222 =
2016-08-26 04:54 METAR KRDG 260854Z 21005KT 10SM BKN080 OVC100 24/22 A2999 RMK AO2 SLP157
                 T02440222 53001 =
2016-08-26 03:54 METAR KRDG 260754Z 00000KT 10SM FEW041 FEW048 24/22 A2998 RMK AO2 LTG DSNT W
                 SLP154 T02440222 =
2016-08-26 02:54 METAR KRDG 260654Z 17003KT 10SM CLR 24/22 A2998 RMK AO2 SLP154 T02390217 =
2016-08-26 01:54 METAR KRDG 260554Z 25003KT 10SM CLR 24/22 A2999 RMK AO2 SLP157 T02440217 10267
                 20233 55006 =
2016-08-26 00:54 METAR KRDG 260454Z 00000KT 10SM CLR 24/21 A2998 RMK AO2 SLP156 T02390211
                 403000189 =
2016-08-25 23:54 METAR KRDG 260354Z 00000KT 10SM CLR 24/22 A3000 RMK AO2 SLP163 T02390217 =
2016-08-25 22:54 METAR KRDG 260254Z 15003KT 10SM CLR 25/22 A3001 RMK AO2 SLP163 T02500217 51001 =
2016-08-25 21:54 METAR KRDG 260154Z 16004KT 10SM CLR 26/22 A3000 RMK AO2 SLP162 T02560217 =
2016-08-25 20:54 METAR KRDG 260054Z 17006KT 10SM CLR 26/22 A3001 RMK AO2 SLP165 T02610217 =
2016-08-25 19:54 METAR KRDG 252354Z 17005KT 10SM FEW035 27/22 A3000 RMK AO2 SLP162 T02670217
                 10300 20267 53000 =
2016-08-25 18:54 METAR KRDG 252254Z 18006KT 10SM FEW024 28/22 A3000 RMK AO2 SLP160 T02780217 =
2016-08-25 17:54 METAR KRDG 252154Z 21007KT 10SM SCT044 BKN065 29/22 A3000 RMK AO2 SLP161
                 T02890217 =
2016-08-25 16:54 METAR KRDG 252054Z 20007KT 10SM SCT034 BKN046 BKN060 28/22 A3000 RMK AO2 SLP162
                 T02830217 56012 =
2016-08-25 15:54 METAR KRDG 251954Z VRB05KT 10SM SCT030 BKN090 29/22 A3001 RMK AO2 SLP165
                 T02940217 =
2016-08-25 14:54 METAR KRDG 251854Z 20005KT 10SM FEW030 FEW110 28/21 A3003 RMK AO2 SLP170
                 T02830211 =
2016-08-25 13:54 METAR KRDG 251754Z 21006KT 10SM FEW026 BKN043 OVC060 28/21 A3004 RMK AO2 SLP174
                 60000 T02780211 10278 20217 58012 =
2016-08-25 12:54 METAR KRDG 251654Z 19006KT 10SM BKN044 OVC100 27/21 A3005 RMK AO2 RAB29E42
                 SLP178 P0000 T02670206 =
2016-08-25 11:54 METAR KRDG 251554Z 22005KT 10SM OVC045 27/20 A3006 RMK AO2 SLP182 T02670200 =
2016-08-25 10:54 METAR KRDG 251454Z 19005KT 10SM SCT065 27/20 A3007 RMK AO2 SLP186 T02670200
                 56009 =
2016-08-25 09:54 METAR KRDG 251354Z 20007KT 10SM CLR 25/19 A3008 RMK AO2 SLP190 T02500189 =
2016-08-25 08:54 METAR KRDG 251254Z 20005KT 10SM CLR 24/18 A3009 RMK AO2 SLP191 T02390183 =
2016-08-25 07:54 METAR KRDG 251154Z 17004KT 10SM CLR 22/17 A3010 RMK AO2 SLP195 T02170172 10222
                 20189 56005 =
2016-08-25 06:54 METAR KRDG 251054Z 00000KT 10SM CLR 21/17 A3011 RMK AO2 SLP200 T02060167 =

Support USWX by starting your Amazon purchase here.